Time;durP1;ratioP1;P1;durP2;ratioP2;P2;SDS_P1;SDS_P2;PMS_P1;PMS_P2;Temp;Humidity;BMP_temperature;BMP_pressure;BME280_temperature;BME280_humidity;BME280_pressure;Samples;Min_cycle;Max_cycle;Signal;HPM_P1;HPM_P2
2021/11/13 00:01:34;;;;;;;23.35;15.30;;;2.60;99.90;;;;;;5034169;28;20060;-73
2021/11/13 00:04:00;;;;;;;23.77;14.85;;;2.60;99.90;;;;;;5033956;28;20045;-73
2021/11/13 00:06:34;;;;;;;23.90;14.75;;;2.60;99.90;;;;;;5018226;28;20052;-73
2021/11/13 00:09:06;;;;;;;25.50;15.13;;;2.60;99.90;;;;;;5033242;28;20053;-73
2021/11/13 00:11:38;;;;;;;24.02;15.32;;;2.60;99.90;;;;;;5033667;28;20045;-73
2021/11/13 00:14:05;;;;;;;28.90;15.80;;;2.60;99.90;;;;;;5033638;28;20057;-72
2021/11/13 00:16:33;;;;;;;26.95;14.82;;;2.60;99.90;;;;;;5051484;28;20044;-73
2021/11/13 00:19:01;;;;;;;31.45;15.82;;;2.60;99.90;;;;;;5033469;28;20045;-73
2021/11/13 00:21:29;;;;;;;23.75;14.65;;;2.60;99.90;;;;;;5033701;28;20055;-73
2021/11/13 00:24:01;;;;;;;26.73;15.10;;;2.70;99.90;;;;;;5033467;28;20071;-72
2021/11/13 00:26:33;;;;;;;24.20;15.40;;;2.70;99.90;;;;;;5035954;28;20045;-73
2021/11/13 00:29:05;;;;;;;29.33;15.23;;;2.70;99.90;;;;;;5033559;28;20048;-73
2021/11/13 00:31:34;;;;;;;27.90;15.55;;;2.70;99.90;;;;;;5033640;28;20518;-73
2021/11/13 00:34:06;;;;;;;25.58;16.50;;;2.70;99.90;;;;;;5017669;28;20052;-72
2021/11/13 00:36:38;;;;;;;25.10;15.90;;;2.80;99.90;;;;;;5014462;28;20045;-73
2021/11/13 00:39:05;;;;;;;25.42;16.08;;;2.70;99.90;;;;;;5013471;28;20121;-73
2021/11/13 00:41:37;;;;;;;23.23;15.65;;;2.80;99.90;;;;;;5032606;28;20056;-72
2021/11/13 00:44:05;;;;;;;24.52;15.07;;;2.80;99.90;;;;;;5016760;28;20053;-73
2021/11/13 00:46:32;;;;;;;25.45;15.98;;;2.80;99.90;;;;;;5033527;28;20099;-72
2021/11/13 00:49:05;;;;;;;24.70;15.63;;;2.80;99.90;;;;;;5033074;28;20048;-73
2021/11/13 00:51:33;;;;;;;23.17;14.30;;;2.70;99.90;;;;;;5033409;28;20511;-73
2021/11/13 00:54:06;;;;;;;24.95;16.17;;;2.70;99.90;;;;;;5033373;28;20103;-73
2021/11/13 00:56:33;;;;;;;23.90;15.30;;;2.80;99.90;;;;;;5033284;28;20100;-73
2021/11/13 00:59:06;;;;;;;23.00;15.93;;;2.80;99.90;;;;;;5051111;28;20033;-73
2021/11/13 01:01:38;;;;;;;;;;;2.70;99.90;;;;;;5033182;28;20095;-73
2021/11/13 01:04:05;;;;;;;20.38;13.57;;;2.70;99.90;;;;;;5032714;28;20613;-72
2021/11/13 01:06:33;;;;;;;23.38;15.30;;;2.70;99.90;;;;;;5033201;28;20479;-73
2021/11/13 01:09:03;;;;;;;23.73;15.20;;;2.70;99.90;;;;;;5033302;28;20106;-73
2021/11/13 01:11:36;;;;;;;24.08;15.45;;;2.70;99.90;;;;;;5033002;28;20091;-73
2021/11/13 01:14:03;;;;;;;27.95;17.02;;;2.60;99.90;;;;;;5050926;28;20056;-73
2021/11/13 01:16:30;;;;;;;26.05;15.75;;;2.60;99.90;;;;;;5033144;28;20056;-72
2021/11/13 01:19:07;;;;;;;24.70;16.45;;;2.60;99.90;;;;;;5017443;28;20415;-73
2021/11/13 01:21:40;;;;;;;24.52;15.98;;;2.60;99.90;;;;;;5051014;28;20051;-73
2021/11/13 01:24:12;;;;;;;25.95;15.88;;;2.60;99.90;;;;;;5032837;28;20276;-73
2021/11/13 01:26:40;;;;;;;24.98;16.15;;;2.60;99.90;;;;;;5033536;28;20041;-73
2021/11/13 01:29:07;;;;;;;27.08;16.25;;;2.70;99.90;;;;;;5033428;28;20102;-73
2021/11/13 01:31:39;;;;;;;25.95;15.45;;;2.70;99.90;;;;;;5017377;28;20059;-73
2021/11/13 01:34:08;;;;;;;24.77;15.38;;;2.70;99.90;;;;;;5030743;28;20045;-73
2021/11/13 01:36:42;;;;;;;23.85;15.98;;;2.70;99.90;;;;;;5033025;28;20048;-73
2021/11/13 01:39:14;;;;;;;22.90;15.85;;;2.70;99.90;;;;;;5032776;28;20053;-73
2021/11/13 01:41:49;;;;;;;22.85;15.73;;;2.70;99.90;;;;;;5017296;28;20594;-73
2021/11/13 01:44:16;;;;;;;25.25;15.73;;;2.70;99.90;;;;;;5015743;28;20059;-73
2021/11/13 01:46:48;;;;;;;26.15;16.02;;;2.70;99.90;;;;;;5031653;28;20033;-73
2021/11/13 01:49:15;;;;;;;27.27;17.77;;;2.80;99.90;;;;;;5035000;28;20055;-73
2021/11/13 01:51:45;;;;;;;25.80;15.80;;;2.80;99.90;;;;;;5036566;28;20504;-73
2021/11/13 01:54:19;;;;;;;29.08;17.13;;;2.80;99.90;;;;;;5036840;28;20045;-73
2021/11/13 01:56:50;;;;;;;29.33;17.42;;;2.80;99.90;;;;;;5036438;28;20040;-73
2021/11/13 01:59:24;;;;;;;36.50;17.40;;;2.80;99.90;;;;;;5036379;28;20045;-73
2021/11/13 02:01:56;;;;;;;29.50;16.48;;;2.70;99.90;;;;;;5053202;28;20508;-73
2021/11/13 02:04:24;;;;;;;37.60;17.48;;;2.60;99.90;;;;;;5035081;28;20618;-73
2021/11/13 02:06:55;;;;;;;39.95;16.42;;;2.60;99.90;;;;;;5035743;28;20155;-73
2021/11/13 02:09:27;;;;;;;28.90;16.75;;;2.60;99.90;;;;;;5019801;28;20075;-73
2021/11/13 02:11:59;;;;;;;31.55;17.33;;;2.60;99.90;;;;;;5035663;28;20052;-73
2021/11/13 02:14:31;;;;;;;26.52;15.93;;;2.60;99.90;;;;;;5019979;28;20064;-73
2021/11/13 02:16:58;;;;;;;31.05;18.38;;;2.50;99.90;;;;;;5019519;28;20120;-72
2021/11/13 02:19:25;;;;;;;30.73;18.52;;;2.50;99.90;;;;;;5036199;28;20068;-72
2021/11/13 02:21:58;;;;;;;33.42;18.52;;;2.50;99.90;;;;;;5036826;28;20123;-73
2021/11/13 02:24:31;;;;;;;32.20;18.17;;;2.50;99.90;;;;;;5036041;28;20048;-73
2021/11/13 02:27:03;;;;;;;29.30;17.73;;;2.50;99.90;;;;;;5019440;28;20045;-73
2021/11/13 02:29:39;;;;;;;29.55;16.75;;;2.50;99.90;;;;;;5035599;28;20103;-73
2021/11/13 02:32:13;;;;;;;29.55;17.67;;;2.60;99.90;;;;;;4999929;28;20044;-73
2021/11/13 02:34:40;;;;;;;29.15;17.10;;;2.60;99.90;;;;;;5031627;28;20037;-73
2021/11/13 02:37:12;;;;;;;27.20;15.50;;;2.50;99.90;;;;;;5015422;28;20096;-73
2021/11/13 02:39:46;;;;;;;25.02;15.63;;;2.50;99.90;;;;;;5016376;28;20073;-73
2021/11/13 02:42:13;;;;;;;29.45;16.90;;;2.50;99.90;;;;;;5035433;28;20047;-72
2021/11/13 02:44:41;;;;;;;27.25;16.33;;;2.40;99.90;;;;;;5034634;28;20509;-73
2021/11/13 02:47:13;;;;;;;28.02;16.55;;;2.40;99.90;;;;;;5035402;28;20049;-73
2021/11/13 02:49:41;;;;;;;24.90;15.77;;;2.40;99.90;;;;;;5035329;28;20143;-73
2021/11/13 02:52:09;;;;;;;27.48;16.65;;;2.40;99.90;;;;;;5018931;28;20075;-73
2021/11/13 02:54:46;;;;;;;27.83;17.00;;;2.40;99.90;;;;;;5018440;28;20404;-73
2021/11/13 02:57:14;;;;;;;28.83;16.65;;;2.40;99.90;;;;;;5018886;28;20121;-72
2021/11/13 02:59:49;;;;;;;27.48;15.93;;;2.30;99.90;;;;;;5034452;28;20049;-73
2021/11/13 03:02:16;;;;;;;26.42;15.77;;;2.30;99.90;;;;;;5034965;28;20059;-73
2021/11/13 03:04:48;;;;;;;29.70;15.63;;;2.30;99.90;;;;;;5019117;28;20064;-73
2021/11/13 03:07:15;;;;;;;25.08;15.30;;;2.30;99.90;;;;;;5018920;28;20499;-73
2021/11/13 03:09:47;;;;;;;28.77;16.50;;;2.30;99.90;;;;;;5034884;28;20439;-73
2021/11/13 03:12:19;;;;;;;24.95;16.52;;;2.40;99.90;;;;;;5019238;28;20136;-73
2021/11/13 03:14:51;;;;;;;26.75;15.90;;;2.30;99.90;;;;;;5019045;28;20500;-73
2021/11/13 03:17:18;;;;;;;25.33;15.63;;;2.30;99.90;;;;;;5034848;28;20055;-73
2021/11/13 03:19:50;;;;;;;29.13;16.88;;;2.40;99.90;;;;;;5019182;28;20091;-73
2021/11/13 03:22:22;;;;;;;24.98;15.65;;;2.40;99.90;;;;;;5052675;28;20146;-73
2021/11/13 03:24:50;;;;;;;22.42;14.75;;;2.40;99.90;;;;;;5035622;28;20482;-73
2021/11/13 03:27:17;;;;;;;23.38;15.35;;;2.40;99.90;;;;;;5037051;28;20044;-72
2021/11/13 03:29:46;;;;;;;26.20;14.73;;;2.50;99.90;;;;;;5035781;28;20039;-73
2021/11/13 03:32:13;;;;;;;21.65;12.93;;;2.40;99.90;;;;;;5052254;28;20063;-73
2021/11/13 03:34:40;;;;;;;19.83;13.50;;;2.40;99.90;;;;;;5034245;28;20047;-72
2021/11/13 03:37:07;;;;;;;23.10;14.38;;;2.40;99.90;;;;;;5034156;28;20088;-73
2021/11/13 03:39:34;;;;;;;26.17;14.75;;;2.30;99.90;;;;;;5034320;28;20496;-72
2021/11/13 03:42:06;;;;;;;23.85;14.32;;;2.30;99.90;;;;;;5018904;28;20056;-71
2021/11/13 03:44:33;;;;;;;29.73;14.48;;;2.30;99.90;;;;;;5033886;28;20053;-73
2021/11/13 03:47:00;;;;;;;31.75;14.77;;;2.30;99.90;;;;;;5034107;28;20045;-73
2021/11/13 03:49:26;;;;;;;22.67;13.65;;;2.30;99.90;;;;;;5034157;28;20056;-72
2021/11/13 03:51:53;;;;;;;22.73;13.38;;;2.20;99.90;;;;;;5017983;28;20045;-73
2021/11/13 03:54:20;;;;;;;23.05;14.23;;;2.30;99.90;;;;;;5034071;28;20073;-72
2021/11/13 03:56:52;;;;;;;26.20;15.05;;;2.20;99.90;;;;;;5034981;28;20550;-73
2021/11/13 03:59:23;;;;;;;26.05;14.60;;;2.10;99.90;;;;;;5034043;28;20076;-73
2021/11/13 04:01:50;;;;;;;29.15;14.45;;;2.10;99.90;;;;;;5017628;28;20052;-73
2021/11/13 04:04:17;;;;;;;22.90;13.77;;;2.10;99.90;;;;;;5033672;28;20549;-73
2021/11/13 04:06:49;;;;;;;30.13;14.68;;;2.10;99.90;;;;;;5033730;28;20507;-73
2021/11/13 04:09:20;;;;;;;33.40;14.70;;;2.10;99.90;;;;;;5034898;28;20496;-73
2021/11/13 04:11:47;;;;;;;28.27;13.95;;;2.10;99.90;;;;;;5033760;28;20052;-71
2021/11/13 04:14:20;;;;;;;36.88;14.90;;;2.10;99.90;;;;;;5018062;28;20508;-72
2021/11/13 04:16:52;;;;;;;34.90;15.82;;;2.10;99.90;;;;;;5033713;28;20041;-72
2021/11/13 04:19:19;;;;;;;26.85;14.45;;;2.10;99.90;;;;;;5033741;28;20045;-73
2021/11/13 04:21:46;;;;;;;37.00;16.20;;;2.10;99.90;;;;;;5017465;28;20416;-73
2021/11/13 04:24:12;;;;;;;33.05;16.02;;;2.10;99.90;;;;;;5033440;28;20056;-72
2021/11/13 04:26:45;;;;;;;27.70;14.77;;;2.10;99.90;;;;;;5033767;28;20049;-72
2021/11/13 04:29:12;;;;;;;30.80;15.45;;;2.10;99.90;;;;;;5017080;28;20045;-73
2021/11/13 04:31:39;;;;;;;29.27;15.40;;;2.20;99.90;;;;;;5013607;28;20488;-72
2021/11/13 04:34:18;;;;;;;31.35;15.57;;;2.20;99.90;;;;;;5030857;28;20045;-73
2021/11/13 04:36:54;;;;;;;25.15;14.40;;;2.20;99.90;;;;;;5011414;28;20404;-73
2021/11/13 04:39:25;;;;;;;31.27;15.40;;;2.10;99.90;;;;;;5051631;28;20044;-73
2021/11/13 04:41:54;;;;;;;25.23;14.88;;;2.10;99.90;;;;;;5033783;28;20261;-73
2021/11/13 04:44:31;;;;;;;34.35;14.85;;;2.10;99.90;;;;;;5018285;28;20470;-73
2021/11/13 04:46:58;;;;;;;32.13;14.73;;;2.10;99.90;;;;;;5033469;28;20060;-73
2021/11/13 04:49:31;;;;;;;30.00;15.48;;;2.10;99.90;;;;;;5033513;28;20045;-73
2021/11/13 04:52:01;;;;;;;34.35;14.82;;;2.10;99.90;;;;;;5033269;28;20041;-73
2021/11/13 04:54:33;;;;;;;28.05;15.07;;;2.10;99.90;;;;;;5033144;28;20155;-73
2021/11/13 04:57:06;;;;;;;31.88;15.15;;;2.10;99.90;;;;;;5034491;28;20047;-73
2021/11/13 04:59:38;;;;;;;32.25;15.40;;;2.10;99.90;;;;;;5017615;28;20067;-73
2021/11/13 05:02:05;;;;;;;28.73;14.13;;;2.20;99.90;;;;;;5033273;28;20129;-73
2021/11/13 05:04:36;;;;;;;30.88;15.30;;;2.20;99.90;;;;;;5017316;28;20091;-72
2021/11/13 05:07:03;;;;;;;34.08;15.95;;;2.20;99.90;;;;;;5051109;28;20065;-73
2021/11/13 05:09:36;;;;;;;35.67;15.23;;;2.20;99.90;;;;;;5034123;28;20045;-73
2021/11/13 05:12:08;;;;;;;36.08;15.85;;;2.30;99.90;;;;;;5033399;28;20045;-73
2021/11/13 05:14:35;;;;;;;42.13;17.23;;;2.30;99.90;;;;;;5050928;28;20491;-73
2021/11/13 05:17:02;;;;;;;44.50;17.00;;;2.30;99.90;;;;;;5029315;28;20045;-73
2021/11/13 05:19:34;;;;;;;41.85;16.80;;;2.30;99.90;;;;;;5030263;28;20052;-73
2021/11/13 05:22:07;;;;;;;44.88;18.38;;;2.30;99.90;;;;;;5029917;28;20045;-72
2021/11/13 05:24:35;;;;;;;48.80;18.92;;;2.30;99.90;;;;;;5032206;28;20129;-73
2021/11/13 05:27:07;;;;;;;37.92;18.20;;;2.40;99.90;;;;;;5037511;28;20045;-73
2021/11/13 05:29:39;;;;;;;50.47;18.13;;;2.40;99.90;;;;;;5021524;28;20053;-73
2021/11/13 05:32:09;;;;;;;53.55;18.95;;;2.40;99.90;;;;;;5037153;28;20587;-73
2021/11/13 05:34:36;;;;;;;48.22;18.65;;;2.40;99.90;;;;;;5036753;28;20041;-73
2021/11/13 05:37:09;;;;;;;66.85;21.67;;;2.40;99.90;;;;;;5021399;28;20041;-73
2021/11/13 05:39:37;;;;;;;52.47;20.13;;;2.50;99.90;;;;;;5036980;28;20115;-73
2021/11/13 05:42:10;;;;;;;47.80;20.80;;;2.50;99.90;;;;;;5036669;28;20053;-73
2021/11/13 05:44:46;;;;;;;47.08;19.40;;;2.50;99.90;;;;;;5036276;28;20045;-73
2021/11/13 05:47:18;;;;;;;69.20;20.70;;;2.50;99.90;;;;;;5037948;28;20045;-73
2021/11/13 05:49:50;;;;;;;41.85;19.33;;;2.50;99.90;;;;;;5020368;28;20106;-73
2021/11/13 05:52:18;;;;;;;32.70;17.35;;;2.50;99.90;;;;;;5041806;28;20240;-72
2021/11/13 05:54:50;;;;;;;34.60;17.13;;;2.50;99.90;;;;;;5038247;28;20123;-73
2021/11/13 05:57:22;;;;;;;31.98;17.00;;;2.50;99.90;;;;;;5050167;28;20037;-72
2021/11/13 05:59:49;;;;;;;36.50;17.40;;;2.50;99.90;;;;;;5055971;28;20102;-73
2021/11/13 06:02:15;;;;;;;41.50;16.63;;;2.50;99.90;;;;;;5040261;28;20064;-73
2021/11/13 06:04:42;;;;;;;40.95;18.20;;;2.50;99.90;;;;;;5035289;28;20427;-73
2021/11/13 06:07:14;;;;;;;40.08;17.90;;;2.50;99.90;;;;;;5016888;28;20527;-73
2021/11/13 06:09:46;;;;;;;42.25;17.95;;;2.50;99.90;;;;;;5037993;28;20045;-73
2021/11/13 06:12:13;;;;;;;35.22;16.73;;;2.50;99.90;;;;;;5033159;28;20040;-72
2021/11/13 06:14:40;;;;;;;29.00;15.93;;;2.50;99.90;;;;;;5016718;28;20484;-73
2021/11/13 06:17:07;;;;;;;32.97;17.17;;;2.70;99.90;;;;;;5034714;28;20037;-72
2021/11/13 06:19:35;;;;;;;31.77;16.73;;;2.60;99.90;;;;;;5035107;28;20048;-73
2021/11/13 06:22:07;;;;;;;36.55;17.65;;;2.60;99.90;;;;;;5016376;28;20048;-72
2021/11/13 06:24:39;;;;;;;34.45;17.88;;;2.70;99.90;;;;;;4999731;28;20076;-73
2021/11/13 06:27:11;;;;;;;38.20;18.52;;;2.70;99.90;;;;;;5008052;28;20040;-72
2021/11/13 06:29:44;;;;;;;39.47;18.77;;;2.70;99.90;;;;;;5036840;28;20052;-73
2021/11/13 06:32:17;;;;;;;39.97;18.55;;;2.70;99.90;;;;;;5035277;28;20450;-73
2021/11/13 06:34:44;;;;;;;37.80;20.27;;;2.70;99.90;;;;;;5033357;28;20812;-71
2021/11/13 06:37:11;;;;;;;35.97;17.52;;;2.70;99.90;;;;;;5035254;28;20045;-73
2021/11/13 06:39:38;;;;;;;33.72;17.13;;;2.70;99.90;;;;;;5019028;28;20045;-73
2021/11/13 06:42:06;;;;;;;38.50;18.08;;;2.70;99.90;;;;;;5035600;28;20052;-73
2021/11/13 06:44:33;;;;;;;36.53;18.45;;;2.70;99.90;;;;;;5034573;28;20044;-73
2021/11/13 06:47:00;;;;;;;36.75;18.63;;;2.80;99.90;;;;;;5035585;28;20049;-73
2021/11/13 06:49:27;;;;;;;40.38;18.35;;;2.80;99.90;;;;;;5035311;28;20526;-73
2021/11/13 06:51:54;;;;;;;32.97;18.77;;;2.90;99.90;;;;;;5052642;28;20124;-73
2021/11/13 06:54:26;;;;;;;37.42;18.67;;;2.90;99.90;;;;;;5034439;28;20120;-73
2021/11/13 06:56:54;;;;;;;37.08;20.00;;;2.90;99.90;;;;;;5053123;28;20041;-73
2021/11/13 06:59:21;;;;;;;35.83;18.33;;;2.90;99.90;;;;;;5035054;28;20044;-73
2021/11/13 07:01:53;;;;;;;37.97;19.65;;;3.00;99.90;;;;;;5035620;28;20048;-73
2021/11/13 07:04:26;;;;;;;33.63;17.17;;;3.00;99.90;;;;;;5033942;28;20045;-72
2021/11/13 07:06:53;;;;;;;37.38;20.30;;;3.00;99.90;;;;;;5033854;28;20140;-73
2021/11/13 07:09:20;;;;;;;35.70;18.33;;;3.10;99.90;;;;;;5019518;28;20040;-72
2021/11/13 07:11:47;;;;;;;38.42;19.80;;;3.10;99.90;;;;;;5041466;28;20107;-73
2021/11/13 07:14:14;;;;;;;36.88;20.08;;;3.10;99.90;;;;;;5032189;28;20037;-73
2021/11/13 07:16:40;;;;;;;34.53;19.77;;;3.20;99.90;;;;;;5018558;28;20104;-72
2021/11/13 07:19:09;;;;;;;35.92;22.00;;;3.30;99.90;;;;;;5032912;28;20392;-73
2021/11/13 07:21:38;;;;;;;36.15;19.80;;;3.30;99.90;;;;;;5046292;28;20045;-73
2021/11/13 07:24:06;;;;;;;32.90;18.90;;;3.40;99.90;;;;;;5031220;28;20068;-73
2021/11/13 07:26:38;;;;;;;31.20;18.20;;;3.40;99.90;;;;;;5022557;28;20056;-73
2021/11/13 07:29:08;;;;;;;32.83;19.38;;;3.50;99.90;;;;;;5011711;28;20045;-73
2021/11/13 07:31:40;;;;;;;32.80;19.33;;;3.50;99.90;;;;;;5013917;28;20412;-73
2021/11/13 07:34:12;;;;;;;32.03;19.67;;;3.50;99.90;;;;;;5013435;28;20500;-73
2021/11/13 07:36:38;;;;;;;37.58;21.38;;;3.50;99.90;;;;;;5014217;28;20038;-73
2021/11/13 07:39:05;;;;;;;45.17;27.08;;;3.60;99.90;;;;;;5014400;28;20049;-74
2021/11/13 07:41:32;;;;;;;47.45;25.95;;;3.60;99.90;;;;;;5013601;28;20520;-73
2021/11/13 07:44:00;;;;;;;43.65;23.25;;;3.60;99.90;;;;;;5028943;28;20523;-72
2021/11/13 07:46:27;;;;;;;84.25;43.72;;;3.50;99.90;;;;;;5032956;28;20499;-73
2021/11/13 07:48:59;;;;;;;52.85;25.40;;;3.50;99.90;;;;;;5034344;28;20045;-74
2021/11/13 07:51:31;;;;;;;60.17;28.38;;;3.50;99.90;;;;;;5002963;28;20515;-73
2021/11/13 07:54:03;;;;;;;45.30;20.88;;;3.50;99.90;;;;;;4997094;28;20048;-73
2021/11/13 07:56:35;;;;;;;50.33;23.23;;;3.40;99.90;;;;;;5031383;28;20041;-71
2021/11/13 07:59:02;;;;;;;42.70;21.42;;;3.40;99.90;;;;;;5030838;28;20157;-73
2021/11/13 08:01:30;;;;;;;41.92;22.38;;;3.50;99.90;;;;;;5050221;28;20127;-73
2021/11/13 08:04:02;;;;;;;41.20;22.15;;;3.50;99.90;;;;;;5032984;28;20052;-73
2021/11/13 08:06:34;;;;;;;38.47;20.63;;;3.50;99.90;;;;;;5032988;28;20037;-72
2021/11/13 08:09:06;;;;;;;44.15;22.67;;;3.60;99.90;;;;;;5051124;28;20044;-73
2021/11/13 08:11:33;;;;;;;35.67;18.65;;;3.60;99.90;;;;;;5034627;28;20052;-73
2021/11/13 08:14:00;;;;;;;31.92;18.10;;;3.70;99.90;;;;;;5035395;28;20518;-73
2021/11/13 08:16:27;;;;;;;33.13;18.40;;;3.70;99.90;;;;;;5033004;28;20044;-73
2021/11/13 08:18:54;;;;;;;33.03;18.85;;;3.90;99.90;;;;;;5023082;28;20045;-74
2021/11/13 08:21:26;;;;;;;33.90;18.23;;;4.00;99.90;;;;;;5013487;28;20052;-73
2021/11/13 08:23:53;;;;;;;30.85;18.05;;;4.00;99.90;;;;;;5011619;28;20068;-74
2021/11/13 08:26:26;;;;;;;26.73;18.48;;;4.10;99.90;;;;;;5029905;28;20064;-74
2021/11/13 08:28:53;;;;;;;28.55;18.08;;;4.30;99.90;;;;;;5012983;28;20049;-73
2021/11/13 08:31:25;;;;;;;31.08;17.38;;;4.30;99.90;;;;;;5043636;28;20068;-73
2021/11/13 08:33:52;;;;;;;29.00;17.88;;;4.30;99.90;;;;;;5032694;28;20041;-73
2021/11/13 08:36:24;;;;;;;28.60;18.10;;;4.40;99.90;;;;;;5034288;28;20044;-74
2021/11/13 08:38:56;;;;;;;25.67;15.93;;;4.40;99.90;;;;;;5034496;28;20033;-74
2021/11/13 08:41:28;;;;;;;25.73;16.70;;;4.50;99.90;;;;;;5034635;28;20041;-74
2021/11/13 08:44:04;;;;;;;26.85;16.90;;;4.60;99.90;;;;;;5017577;28;20064;-74
2021/11/13 08:46:36;;;;;;;25.13;16.85;;;4.60;99.90;;;;;;5014587;28;20049;-73
2021/11/13 08:49:04;;;;;;;27.05;16.48;;;4.60;99.90;;;;;;5049828;28;20045;-74
2021/11/13 08:51:31;;;;;;;25.80;16.83;;;4.70;99.90;;;;;;5032747;28;20079;-73
2021/11/13 08:53:58;;;;;;;32.50;16.17;;;4.80;99.90;;;;;;5032946;28;20049;-74
2021/11/13 08:56:28;;;;;;;24.77;16.70;;;4.80;99.90;;;;;;5016206;28;20511;-73
2021/11/13 08:59:00;;;;;;;29.30;16.17;;;4.90;99.90;;;;;;5034382;28;20040;-74
2021/11/13 09:01:30;;;;;;;25.10;17.77;;;4.90;99.90;;;;;;5036343;28;20495;-74
2021/11/13 09:03:59;;;;;;;26.98;16.88;;;5.00;99.90;;;;;;5033150;28;20050;-73
2021/11/13 09:06:31;;;;;;;26.30;16.00;;;5.20;99.90;;;;;;5036537;28;20053;-73
2021/11/13 09:09:06;;;;;;;26.90;17.88;;;5.20;99.90;;;;;;5054918;28;20045;-73
2021/11/13 09:11:39;;;;;;;25.15;16.90;;;5.20;99.90;;;;;;5036989;28;20040;-74
2021/11/13 09:14:15;;;;;;;25.00;16.33;;;5.30;99.90;;;;;;5036131;28;20052;-73
2021/11/13 09:16:42;;;;;;;28.38;17.02;;;5.20;99.90;;;;;;5054782;28;20091;-74
2021/11/13 09:19:14;;;;;;;27.48;17.73;;;5.30;99.90;;;;;;5037333;28;20045;-73
2021/11/13 09:21:42;;;;;;;27.92;19.05;;;5.30;99.90;;;;;;5036570;28;20033;-74
2021/11/13 09:24:12;;;;;;;24.55;16.83;;;5.30;99.90;;;;;;5036210;28;20045;-74
2021/11/13 09:26:44;;;;;;;24.90;16.23;;;5.30;99.90;;;;;;5037138;28;20061;-73
2021/11/13 09:29:12;;;;;;;26.70;16.92;;;5.30;99.90;;;;;;5039182;28;20055;-74
2021/11/13 09:31:42;;;;;;;24.98;16.75;;;5.20;99.90;;;;;;5037456;28;20045;-74
2021/11/13 09:34:13;;;;;;;25.85;17.52;;;5.20;99.90;;;;;;5033748;28;20124;-73
2021/11/13 09:36:41;;;;;;;26.15;16.95;;;5.10;99.90;;;;;;5000214;28;20049;-74
2021/11/13 09:39:13;;;;;;;29.77;19.33;;;5.10;99.90;;;;;;5035223;28;20045;-73
2021/11/13 09:41:41;;;;;;;24.33;15.93;;;5.10;99.90;;;;;;5019659;28;20049;-74
2021/11/13 09:44:09;;;;;;;25.75;16.83;;;5.10;99.90;;;;;;5035592;28;20048;-74
2021/11/13 09:46:42;;;;;;;28.77;18.17;;;5.10;99.90;;;;;;5036089;28;20515;-74
2021/11/13 09:49:09;;;;;;;24.23;16.15;;;5.20;99.90;;;;;;5053769;28;20056;-73
2021/11/13 09:51:36;;;;;;;22.33;16.08;;;5.20;99.90;;;;;;5036140;28;20051;-74
2021/11/13 09:54:08;;;;;;;22.55;15.63;;;5.20;99.90;;;;;;5035658;28;20045;-74
2021/11/13 09:56:40;;;;;;;31.95;19.38;;;5.20;99.90;;;;;;5035992;28;20049;-74
2021/11/13 09:59:07;;;;;;;27.10;17.98;;;5.20;99.90;;;;;;5035882;28;20440;-74
2021/11/13 10:01:39;;;;;;;28.80;19.23;;;5.20;99.90;;;;;;5046527;28;20157;-74
2021/11/13 10:04:06;;;;;;;24.80;16.33;;;5.20;99.90;;;;;;5044285;28;20778;-73
2021/11/13 10:06:33;;;;;;;23.92;17.20;;;5.20;99.90;;;;;;5035355;28;20518;-74
2021/11/13 10:09:00;;;;;;;23.80;15.90;;;5.20;99.90;;;;;;5035033;28;20049;-73
2021/11/13 10:11:32;;;;;;;23.88;16.05;;;5.20;99.90;;;;;;5033544;28;20384;-74
2021/11/13 10:14:01;;;;;;;26.33;17.02;;;5.30;99.90;;;;;;5046085;28;20041;-73
2021/11/13 10:16:36;;;;;;;28.45;18.63;;;5.20;99.90;;;;;;5053127;28;20044;-74
2021/11/13 10:19:08;;;;;;;27.02;17.20;;;5.20;99.90;;;;;;5018001;28;20419;-74
2021/11/13 10:21:37;;;;;;;24.13;17.23;;;5.20;99.90;;;;;;5055326;28;20037;-74
2021/11/13 10:24:10;;;;;;;25.35;17.60;;;5.20;99.90;;;;;;5017162;28;20242;-74
2021/11/13 10:26:46;;;;;;;28.20;17.00;;;5.20;99.90;;;;;;5035345;28;20462;-73
2021/11/13 10:29:22;;;;;;;28.85;17.50;;;5.30;99.90;;;;;;5035567;28;20071;-74
2021/11/13 10:31:50;;;;;;;26.25;17.80;;;5.30;99.90;;;;;;5044678;28;20050;-74
2021/11/13 10:34:19;;;;;;;30.35;17.98;;;5.30;99.90;;;;;;5015746;28;20037;-73
2021/11/13 10:36:57;;;;;;;25.00;16.90;;;5.40;99.90;;;;;;5047994;28;20120;-73
2021/11/13 10:39:33;;;;;;;25.98;17.15;;;5.40;99.90;;;;;;5034784;28;20063;-74
2021/11/13 10:42:12;;;;;;;24.65;17.90;;;5.30;99.90;;;;;;5035293;28;20380;-73
2021/11/13 10:45:01;;;;;;;24.05;16.02;;;5.30;99.90;;;;;;5007707;28;20061;-74
2021/11/13 10:47:39;;;;;;;24.55;15.70;;;5.30;99.90;;;;;;5039375;28;20410;-73
2021/11/13 10:50:18;;;;;;;28.33;16.38;;;5.30;99.90;;;;;;5028296;28;20628;-74
2021/11/13 10:53:08;;;;;;;24.67;16.38;;;5.30;99.90;;;;;;5025268;28;20111;-74
2021/11/13 10:56:00;;;;;;;25.75;15.90;;;5.40;99.90;;;;;;5041971;28;20065;-74
2021/11/13 10:58:32;;;;;;;26.13;15.25;;;5.30;99.90;;;;;;5040534;28;20407;-74
2021/11/13 11:01:02;;;;;;;29.63;17.00;;;5.40;99.90;;;;;;5034740;28;20041;-74
2021/11/13 11:03:42;;;;;;;24.38;15.43;;;5.40;99.90;;;;;;5034271;28;20415;-73
2021/11/13 11:06:11;;;;;;;25.25;16.48;;;5.40;99.90;;;;;;5032801;28;20053;-73
2021/11/13 11:08:43;;;;;;;;;;;5.40;99.90;;;;;;5035508;28;20044;-74
2021/11/13 11:11:27;;;;;;;29.10;17.55;;;5.50;99.90;;;;;;5035196;28;19932;-73
2021/11/13 11:14:00;;;;;;;28.20;17.02;;;5.50;99.90;;;;;;5034864;28;20519;-73
2021/11/13 11:16:41;;;;;;;27.83;17.40;;;5.50;99.90;;;;;;5036167;28;20076;-73
2021/11/13 11:19:31;;;;;;;28.15;18.33;;;5.50;99.90;;;;;;5034835;28;20060;-73
2021/11/13 11:22:00;;;;;;;24.92;16.17;;;5.60;99.90;;;;;;5021063;28;20037;-70
2021/11/13 11:24:37;;;;;;;27.80;16.63;;;5.80;99.90;;;;;;5029960;28;20048;-71
2021/11/13 11:27:40;;;;;;;25.90;16.55;;;6.00;99.90;;;;;;5030793;28;20046;-72
2021/11/13 11:30:22;;;;;;;26.15;16.98;;;6.00;99.90;;;;;;5003811;28;20049;-71
2021/11/13 11:32:51;;;;;;;26.20;16.73;;;5.90;99.90;;;;;;5023237;28;20095;-72
2021/11/13 11:35:30;;;;;;;27.45;16.58;;;6.00;99.90;;;;;;5027995;28;20049;-71
2021/11/13 11:38:07;;;;;;;26.30;17.23;;;5.90;99.90;;;;;;5039986;28;20101;-71
2021/11/13 11:40:45;;;;;;;28.40;17.70;;;5.90;99.90;;;;;;5024548;28;20125;-74
2021/11/13 11:43:17;;;;;;;27.40;17.48;;;5.80;99.90;;;;;;5032042;28;20060;-72
2021/11/13 11:45:50;;;;;;;26.67;18.35;;;5.80;99.90;;;;;;5047518;28;20098;-72
2021/11/13 11:48:26;;;;;;;30.48;18.63;;;5.80;99.90;;;;;;5016259;28;20052;-71
2021/11/13 11:51:01;;;;;;;29.42;19.02;;;5.80;99.90;;;;;;5031486;28;20567;-71
2021/11/13 11:53:33;;;;;;;31.30;19.02;;;5.70;99.90;;;;;;5034460;28;20045;-72
2021/11/13 11:56:01;;;;;;;28.38;18.23;;;5.70;99.90;;;;;;5049572;28;20044;-70
2021/11/13 11:58:34;;;;;;;30.05;18.58;;;5.70;99.90;;;;;;5051580;28;20443;-70
2021/11/13 12:01:03;;;;;;;26.90;16.88;;;5.70;99.90;;;;;;5051036;28;20040;-71
2021/11/13 12:03:37;;;;;;;33.25;21.70;;;5.80;99.90;;;;;;5049211;28;20099;-72
2021/11/13 12:06:06;;;;;;;27.42;18.38;;;5.80;99.90;;;;;;5033238;28;20048;-72
2021/11/13 12:08:38;;;;;;;;;;;5.80;99.90;;;;;;5033830;28;20060;-73
2021/11/13 12:11:36;;;;;;;26.95;16.35;;;5.80;99.90;;;;;;5033209;28;19921;-71
2021/11/13 12:14:36;;;;;;;30.92;18.90;;;5.80;99.90;;;;;;5016868;28;20496;-71
2021/11/13 12:17:36;;;;;;;30.50;18.35;;;5.90;99.90;;;;;;5016752;28;20051;-72
2021/11/13 12:20:08;;;;;;;29.23;17.55;;;5.90;99.90;;;;;;5030834;28;20048;-72
2021/11/13 12:22:48;;;;;;;28.75;18.05;;;6.00;99.90;;;;;;5030102;28;20037;-72
2021/11/13 12:25:30;;;;;;;28.92;18.10;;;6.00;99.90;;;;;;5034558;28;20052;-70
2021/11/13 12:28:21;;;;;;;26.92;18.67;;;6.00;99.90;;;;;;5033253;28;20135;-72
2021/11/13 12:30:52;;;;;;;30.33;18.13;;;6.10;99.90;;;;;;5032142;28;20049;-72
2021/11/13 12:33:25;;;;;;;29.08;19.42;;;6.10;99.90;;;;;;5037282;28;20051;-71
2021/11/13 12:36:13;;;;;;;31.52;20.38;;;6.10;99.90;;;;;;5012699;28;20045;-72
2021/11/13 12:39:05;;;;;;;32.08;21.33;;;6.10;99.90;;;;;;5046042;28;20622;-71
2021/11/13 12:41:48;;;;;;;31.38;20.65;;;6.10;99.90;;;;;;5019804;28;20041;-71
2021/11/13 12:44:37;;;;;;;34.25;20.73;;;6.10;99.90;;;;;;5031103;28;20064;-72
2021/11/13 12:47:23;;;;;;;31.70;20.13;;;6.10;99.90;;;;;;5045969;28;20499;-70
2021/11/13 12:49:59;;;;;;;32.88;20.55;;;6.10;99.90;;;;;;5030353;28;20500;-69
2021/11/13 12:52:46;;;;;;;34.15;20.55;;;6.20;99.90;;;;;;5023961;28;20396;-70
2021/11/13 12:55:33;;;;;;;29.55;19.88;;;6.20;99.90;;;;;;5032837;28;20442;-72
2021/11/13 12:58:17;;;;;;;33.10;19.52;;;6.20;99.90;;;;;;5030978;28;20033;-72
2021/11/13 13:00:54;;;;;;;35.28;21.35;;;6.20;99.90;;;;;;5031432;28;20045;-72